sensor_id;sensor_type;location;lat;lon;timestamp;P1;durP1;ratioP1;P2;durP2;ratioP2
8044;SDS011;4065;48.754;9.982;2023-05-29T00:01:16;10.07;;;5.93;;
8044;SDS011;4065;48.754;9.982;2023-05-29T00:04:39;9.23;;;6.25;;
8044;SDS011;4065;48.754;9.982;2023-05-29T00:08:00;7.50;;;6.00;;
8044;SDS011;4065;48.754;9.982;2023-05-29T00:11:22;8.05;;;6.30;;
8044;SDS011;4065;48.754;9.982;2023-05-29T00:14:46;9.35;;;5.82;;
8044;SDS011;4065;48.754;9.982;2023-05-29T00:18:07;6.88;;;5.68;;
8044;SDS011;4065;48.754;9.982;2023-05-29T00:21:29;8.85;;;6.45;;
8044;SDS011;4065;48.754;9.982;2023-05-29T00:24:52;8.60;;;5.63;;
8044;SDS011;4065;48.754;9.982;2023-05-29T00:28:14;7.43;;;5.78;;
8044;SDS011;4065;48.754;9.982;2023-05-29T00:31:37;7.55;;;5.25;;
8044;SDS011;4065;48.754;9.982;2023-05-29T00:34:59;8.35;;;5.22;;
8044;SDS011;4065;48.754;9.982;2023-05-29T00:38:20;8.85;;;5.75;;
8044;SDS011;4065;48.754;9.982;2023-05-29T00:41:42;8.35;;;5.97;;
8044;SDS011;4065;48.754;9.982;2023-05-29T00:45:05;7.40;;;5.00;;
8044;SDS011;4065;48.754;9.982;2023-05-29T00:48:29;8.43;;;6.00;;
8044;SDS011;4065;48.754;9.982;2023-05-29T00:51:51;7.65;;;5.32;;
8044;SDS011;4065;48.754;9.982;2023-05-29T00:55:13;6.75;;;5.30;;
8044;SDS011;4065;48.754;9.982;2023-05-29T00:58:35;8.13;;;5.60;;
8044;SDS011;4065;48.754;9.982;2023-05-29T01:01:58;8.65;;;5.53;;
8044;SDS011;4065;48.754;9.982;2023-05-29T01:05:22;8.82;;;5.85;;
8044;SDS011;4065;48.754;9.982;2023-05-29T01:08:44;7.40;;;5.88;;
8044;SDS011;4065;48.754;9.982;2023-05-29T01:12:08;6.25;;;4.95;;
8044;SDS011;4065;48.754;9.982;2023-05-29T01:15:41;7.95;;;5.43;;
8044;SDS011;4065;48.754;9.982;2023-05-29T01:19:08;12.25;;;6.05;;
8044;SDS011;4065;48.754;9.982;2023-05-29T01:22:44;7.90;;;5.70;;
8044;SDS011;4065;48.754;9.982;2023-05-29T01:30:11;7.10;;;5.30;;
8044;SDS011;4065;48.754;9.982;2023-05-29T01:33:38;8.40;;;5.63;;
8044;SDS011;4065;48.754;9.982;2023-05-29T01:37:00;7.38;;;5.32;;
8044;SDS011;4065;48.754;9.982;2023-05-29T01:40:22;7.70;;;5.28;;
8044;SDS011;4065;48.754;9.982;2023-05-29T01:43:45;7.25;;;5.75;;
8044;SDS011;4065;48.754;9.982;2023-05-29T01:47:08;7.35;;;5.65;;
8044;SDS011;4065;48.754;9.982;2023-05-29T01:50:30;7.78;;;5.15;;
8044;SDS011;4065;48.754;9.982;2023-05-29T01:53:52;7.82;;;5.15;;
8044;SDS011;4065;48.754;9.982;2023-05-29T01:57:14;6.70;;;5.65;;
8044;SDS011;4065;48.754;9.982;2023-05-29T02:00:37;9.98;;;5.57;;
8044;SDS011;4065;48.754;9.982;2023-05-29T02:04:00;7.55;;;5.55;;
8044;SDS011;4065;48.754;9.982;2023-05-29T02:07:22;8.13;;;5.53;;
8044;SDS011;4065;48.754;9.982;2023-05-29T02:10:44;7.70;;;5.30;;
8044;SDS011;4065;48.754;9.982;2023-05-29T02:14:06;7.38;;;5.20;;
8044;SDS011;4065;48.754;9.982;2023-05-29T02:17:30;10.20;;;5.35;;
8044;SDS011;4065;48.754;9.982;2023-05-29T02:20:52;7.32;;;5.28;;
8044;SDS011;4065;48.754;9.982;2023-05-29T02:24:14;7.38;;;5.80;;
8044;SDS011;4065;48.754;9.982;2023-05-29T02:27:35;8.13;;;5.03;;
8044;SDS011;4065;48.754;9.982;2023-05-29T02:30:57;6.90;;;5.50;;
8044;SDS011;4065;48.754;9.982;2023-05-29T02:34:21;8.45;;;5.57;;
8044;SDS011;4065;48.754;9.982;2023-05-29T02:37:43;9.13;;;5.63;;
8044;SDS011;4065;48.754;9.982;2023-05-29T02:41:05;6.32;;;5.55;;
8044;SDS011;4065;48.754;9.982;2023-05-29T02:44:27;7.95;;;5.70;;
8044;SDS011;4065;48.754;9.982;2023-05-29T02:47:51;8.45;;;5.57;;
8044;SDS011;4065;48.754;9.982;2023-05-29T02:51:14;7.28;;;5.90;;
8044;SDS011;4065;48.754;9.982;2023-05-29T02:54:36;8.73;;;6.22;;
8044;SDS011;4065;48.754;9.982;2023-05-29T02:57:58;8.20;;;6.35;;
8044;SDS011;4065;48.754;9.982;2023-05-29T03:01:21;9.07;;;5.97;;
8044;SDS011;4065;48.754;9.982;2023-05-29T03:04:43;8.25;;;5.63;;
8044;SDS011;4065;48.754;9.982;2023-05-29T03:08:07;8.10;;;6.00;;
8044;SDS011;4065;48.754;9.982;2023-05-29T03:11:28;7.78;;;6.03;;
8044;SDS011;4065;48.754;9.982;2023-05-29T03:14:51;10.70;;;6.40;;
8044;SDS011;4065;48.754;9.982;2023-05-29T03:18:13;7.55;;;5.50;;
8044;SDS011;4065;48.754;9.982;2023-05-29T03:21:34;8.30;;;5.88;;
8044;SDS011;4065;48.754;9.982;2023-05-29T03:24:58;6.25;;;5.22;;
8044;SDS011;4065;48.754;9.982;2023-05-29T03:28:20;10.35;;;5.50;;
8044;SDS011;4065;48.754;9.982;2023-05-29T03:31:42;6.63;;;5.47;;
8044;SDS011;4065;48.754;9.982;2023-05-29T03:35:04;11.10;;;5.90;;
8044;SDS011;4065;48.754;9.982;2023-05-29T03:38:30;7.72;;;5.18;;
8044;SDS011;4065;48.754;9.982;2023-05-29T03:41:53;6.22;;;5.63;;
8044;SDS011;4065;48.754;9.982;2023-05-29T03:45:15;7.85;;;5.75;;
8044;SDS011;4065;48.754;9.982;2023-05-29T03:48:37;7.40;;;5.75;;
8044;SDS011;4065;48.754;9.982;2023-05-29T03:51:59;6.68;;;5.72;;
8044;SDS011;4065;48.754;9.982;2023-05-29T03:55:21;7.82;;;5.47;;
8044;SDS011;4065;48.754;9.982;2023-05-29T03:58:46;8.00;;;5.93;;
8044;SDS011;4065;48.754;9.982;2023-05-29T04:02:08;9.63;;;6.10;;
8044;SDS011;4065;48.754;9.982;2023-05-29T04:05:30;8.52;;;5.70;;
8044;SDS011;4065;48.754;9.982;2023-05-29T04:08:52;9.52;;;5.93;;
8044;SDS011;4065;48.754;9.982;2023-05-29T04:12:14;7.47;;;5.63;;
8044;SDS011;4065;48.754;9.982;2023-05-29T04:15:38;7.88;;;5.88;;
8044;SDS011;4065;48.754;9.982;2023-05-29T04:19:02;8.77;;;6.10;;
8044;SDS011;4065;48.754;9.982;2023-05-29T04:22:24;6.43;;;5.63;;
8044;SDS011;4065;48.754;9.982;2023-05-29T04:25:46;7.35;;;5.90;;
8044;SDS011;4065;48.754;9.982;2023-05-29T04:29:14;8.93;;;5.97;;
8044;SDS011;4065;48.754;9.982;2023-05-29T04:32:37;8.57;;;5.97;;
8044;SDS011;4065;48.754;9.982;2023-05-29T04:36:00;8.70;;;6.03;;
8044;SDS011;4065;48.754;9.982;2023-05-29T04:39:26;9.18;;;6.10;;
8044;SDS011;4065;48.754;9.982;2023-05-29T04:42:48;7.97;;;5.80;;
8044;SDS011;4065;48.754;9.982;2023-05-29T04:46:10;14.35;;;6.57;;
8044;SDS011;4065;48.754;9.982;2023-05-29T04:49:34;8.10;;;5.72;;
8044;SDS011;4065;48.754;9.982;2023-05-29T04:52:56;8.73;;;6.40;;
8044;SDS011;4065;48.754;9.982;2023-05-29T04:56:20;8.13;;;6.40;;
8044;SDS011;4065;48.754;9.982;2023-05-29T04:59:42;6.85;;;5.43;;
8044;SDS011;4065;48.754;9.982;2023-05-29T05:03:04;9.85;;;6.30;;
8044;SDS011;4065;48.754;9.982;2023-05-29T05:06:28;9.30;;;5.78;;
8044;SDS011;4065;48.754;9.982;2023-05-29T05:09:49;9.18;;;6.18;;
8044;SDS011;4065;48.754;9.982;2023-05-29T05:13:11;9.27;;;6.32;;
8044;SDS011;4065;48.754;9.982;2023-05-29T05:16:33;9.05;;;5.72;;
8044;SDS011;4065;48.754;9.982;2023-05-29T05:19:55;9.18;;;5.78;;
8044;SDS011;4065;48.754;9.982;2023-05-29T05:23:18;8.25;;;5.57;;
8044;SDS011;4065;48.754;9.982;2023-05-29T05:26:40;8.68;;;5.95;;
8044;SDS011;4065;48.754;9.982;2023-05-29T05:30:02;7.50;;;5.53;;
8044;SDS011;4065;48.754;9.982;2023-05-29T05:33:25;9.10;;;5.68;;
8044;SDS011;4065;48.754;9.982;2023-05-29T05:36:47;8.07;;;5.78;;
8044;SDS011;4065;48.754;9.982;2023-05-29T05:40:11;7.50;;;5.40;;
8044;SDS011;4065;48.754;9.982;2023-05-29T05:43:33;12.32;;;5.78;;
8044;SDS011;4065;48.754;9.982;2023-05-29T05:46:58;8.55;;;5.32;;
8044;SDS011;4065;48.754;9.982;2023-05-29T05:50:20;8.13;;;5.60;;
8044;SDS011;4065;48.754;9.982;2023-05-29T05:53:42;8.65;;;5.38;;
8044;SDS011;4065;48.754;9.982;2023-05-29T05:57:06;7.88;;;5.43;;
8044;SDS011;4065;48.754;9.982;2023-05-29T06:00:28;8.45;;;5.47;;
8044;SDS011;4065;48.754;9.982;2023-05-29T06:03:52;8.27;;;5.85;;
8044;SDS011;4065;48.754;9.982;2023-05-29T06:07:14;10.07;;;5.63;;
8044;SDS011;4065;48.754;9.982;2023-05-29T06:10:35;8.73;;;5.80;;
8044;SDS011;4065;48.754;9.982;2023-05-29T06:13:59;8.88;;;5.88;;
8044;SDS011;4065;48.754;9.982;2023-05-29T06:17:21;8.43;;;5.32;;
8044;SDS011;4065;48.754;9.982;2023-05-29T06:20:44;7.57;;;5.43;;
8044;SDS011;4065;48.754;9.982;2023-05-29T06:24:06;9.18;;;5.88;;
8044;SDS011;4065;48.754;9.982;2023-05-29T06:27:28;9.95;;;5.70;;
8044;SDS011;4065;48.754;9.982;2023-05-29T06:30:51;12.23;;;6.00;;
8044;SDS011;4065;48.754;9.982;2023-05-29T06:34:13;6.30;;;4.95;;
8044;SDS011;4065;48.754;9.982;2023-05-29T06:37:35;6.45;;;5.43;;
8044;SDS011;4065;48.754;9.982;2023-05-29T06:40:57;10.80;;;5.88;;
8044;SDS011;4065;48.754;9.982;2023-05-29T06:44:19;6.75;;;5.38;;
8044;SDS011;4065;48.754;9.982;2023-05-29T06:47:42;9.30;;;5.90;;
8044;SDS011;4065;48.754;9.982;2023-05-29T06:51:04;9.60;;;6.45;;
8044;SDS011;4065;48.754;9.982;2023-05-29T06:54:28;7.80;;;5.45;;
8044;SDS011;4065;48.754;9.982;2023-05-29T06:57:53;8.65;;;5.28;;
8044;SDS011;4065;48.754;9.982;2023-05-29T07:01:15;8.82;;;5.70;;
8044;SDS011;4065;48.754;9.982;2023-05-29T07:04:38;7.18;;;5.22;;
8044;SDS011;4065;48.754;9.982;2023-05-29T07:08:01;7.15;;;5.30;;
8044;SDS011;4065;48.754;9.982;2023-05-29T07:11:23;8.48;;;6.03;;
8044;SDS011;4065;48.754;9.982;2023-05-29T07:14:48;9.95;;;5.63;;
8044;SDS011;4065;48.754;9.982;2023-05-29T07:18:10;7.68;;;5.25;;
8044;SDS011;4065;48.754;9.982;2023-05-29T07:21:34;9.68;;;5.97;;
8044;SDS011;4065;48.754;9.982;2023-05-29T07:24:56;8.07;;;5.25;;
8044;SDS011;4065;48.754;9.982;2023-05-29T07:28:18;8.52;;;6.07;;
8044;SDS011;4065;48.754;9.982;2023-05-29T07:31:40;8.93;;;5.80;;
8044;SDS011;4065;48.754;9.982;2023-05-29T07:35:02;9.70;;;6.43;;
8044;SDS011;4065;48.754;9.982;2023-05-29T07:38:26;10.32;;;6.03;;
8044;SDS011;4065;48.754;9.982;2023-05-29T07:41:28;10.73;;;5.65;;
8044;SDS011;4065;48.754;9.982;2023-05-29T07:44:30;9.13;;;5.40;;
8044;SDS011;4065;48.754;9.982;2023-05-29T07:47:32;9.32;;;6.15;;
8044;SDS011;4065;48.754;9.982;2023-05-29T07:50:33;9.77;;;5.80;;
8044;SDS011;4065;48.754;9.982;2023-05-29T07:53:38;10.10;;;5.50;;
8044;SDS011;4065;48.754;9.982;2023-05-29T07:56:40;8.73;;;5.63;;
8044;SDS011;4065;48.754;9.982;2023-05-29T07:59:44;9.38;;;5.03;;
8044;SDS011;4065;48.754;9.982;2023-05-29T08:02:49;8.98;;;5.55;;
8044;SDS011;4065;48.754;9.982;2023-05-29T08:05:51;7.80;;;5.55;;
8044;SDS011;4065;48.754;9.982;2023-05-29T08:08:54;8.00;;;5.43;;
8044;SDS011;4065;48.754;9.982;2023-05-29T08:11:57;10.02;;;5.30;;
8044;SDS011;4065;48.754;9.982;2023-05-29T08:14:59;8.75;;;5.50;;
8044;SDS011;4065;48.754;9.982;2023-05-29T08:18:02;8.50;;;5.60;;
8044;SDS011;4065;48.754;9.982;2023-05-29T08:21:24;7.03;;;4.85;;
8044;SDS011;4065;48.754;9.982;2023-05-29T08:24:48;7.72;;;5.32;;
8044;SDS011;4065;48.754;9.982;2023-05-29T08:28:11;6.35;;;4.88;;
8044;SDS011;4065;48.754;9.982;2023-05-29T08:31:34;9.02;;;5.40;;
8044;SDS011;4065;48.754;9.982;2023-05-29T08:34:56;9.25;;;5.47;;
8044;SDS011;4065;48.754;9.982;2023-05-29T08:38:18;10.18;;;4.65;;
8044;SDS011;4065;48.754;9.982;2023-05-29T08:41:44;8.43;;;5.18;;
8044;SDS011;4065;48.754;9.982;2023-05-29T08:45:11;8.50;;;5.03;;
8044;SDS011;4065;48.754;9.982;2023-05-29T08:48:35;8.50;;;5.03;;
8044;SDS011;4065;48.754;9.982;2023-05-29T08:52:02;9.02;;;5.20;;
8044;SDS011;4065;48.754;9.982;2023-05-29T08:55:25;8.57;;;5.20;;
8044;SDS011;4065;48.754;9.982;2023-05-29T08:58:49;7.80;;;5.50;;
8044;SDS011;4065;48.754;9.982;2023-05-29T09:02:13;8.52;;;4.85;;
8044;SDS011;4065;48.754;9.982;2023-05-29T09:05:36;5.13;;;4.20;;
8044;SDS011;4065;48.754;9.982;2023-05-29T09:09:00;6.60;;;4.50;;
8044;SDS011;4065;48.754;9.982;2023-05-29T09:12:22;8.70;;;4.53;;
8044;SDS011;4065;48.754;9.982;2023-05-29T09:15:48;12.70;;;5.10;;
8044;SDS011;4065;48.754;9.982;2023-05-29T09:19:10;8.13;;;4.88;;
8044;SDS011;4065;48.754;9.982;2023-05-29T09:22:32;5.40;;;4.28;;
8044;SDS011;4065;48.754;9.982;2023-05-29T09:25:54;8.10;;;4.47;;
8044;SDS011;4065;48.754;9.982;2023-05-29T09:29:16;9.38;;;5.25;;
8044;SDS011;4065;48.754;9.982;2023-05-29T09:32:40;6.57;;;4.68;;
8044;SDS011;4065;48.754;9.982;2023-05-29T09:36:02;6.32;;;4.13;;
8044;SDS011;4065;48.754;9.982;2023-05-29T09:39:24;7.72;;;4.57;;
8044;SDS011;4065;48.754;9.982;2023-05-29T09:42:46;6.75;;;4.60;;
8044;SDS011;4065;48.754;9.982;2023-05-29T09:46:08;7.53;;;4.50;;
8044;SDS011;4065;48.754;9.982;2023-05-29T09:49:41;6.65;;;3.95;;
8044;SDS011;4065;48.754;9.982;2023-05-29T09:53:03;5.75;;;4.10;;
8044;SDS011;4065;48.754;9.982;2023-05-29T09:56:38;7.00;;;3.78;;
8044;SDS011;4065;48.754;9.982;2023-05-29T10:00:02;6.97;;;4.40;;
8044;SDS011;4065;48.754;9.982;2023-05-29T10:03:33;5.38;;;3.78;;
8044;SDS011;4065;48.754;9.982;2023-05-29T10:06:56;5.80;;;3.88;;
8044;SDS011;4065;48.754;9.982;2023-05-29T10:10:20;5.75;;;4.10;;
8044;SDS011;4065;48.754;9.982;2023-05-29T10:13:44;6.18;;;3.90;;
8044;SDS011;4065;48.754;9.982;2023-05-29T10:17:09;9.68;;;4.10;;
8044;SDS011;4065;48.754;9.982;2023-05-29T10:20:33;7.28;;;4.18;;
8044;SDS011;4065;48.754;9.982;2023-05-29T10:23:58;6.10;;;3.80;;
8044;SDS011;4065;48.754;9.982;2023-05-29T10:27:21;5.97;;;4.05;;
8044;SDS011;4065;48.754;9.982;2023-05-29T10:30:45;9.32;;;3.63;;
8044;SDS011;4065;48.754;9.982;2023-05-29T10:34:14;6.05;;;3.75;;
8044;SDS011;4065;48.754;9.982;2023-05-29T10:37:42;6.20;;;3.90;;
8044;SDS011;4065;48.754;9.982;2023-05-29T10:44:59;7.85;;;3.70;;
8044;SDS011;4065;48.754;9.982;2023-05-29T10:48:37;5.93;;;3.85;;
8044;SDS011;4065;48.754;9.982;2023-05-29T10:52:03;6.97;;;3.50;;
8044;SDS011;4065;48.754;9.982;2023-05-29T10:55:33;8.00;;;3.78;;
8044;SDS011;4065;48.754;9.982;2023-05-29T10:58:58;6.88;;;3.85;;
8044;SDS011;4065;48.754;9.982;2023-05-29T11:02:21;5.88;;;4.20;;
8044;SDS011;4065;48.754;9.982;2023-05-29T11:05:55;5.75;;;3.95;;
8044;SDS011;4065;48.754;9.982;2023-05-29T11:09:26;6.20;;;4.07;;
8044;SDS011;4065;48.754;9.982;2023-05-29T11:12:58;5.85;;;4.00;;
8044;SDS011;4065;48.754;9.982;2023-05-29T11:20:02;5.45;;;3.78;;
8044;SDS011;4065;48.754;9.982;2023-05-29T11:23:28;5.75;;;4.22;;
8044;SDS011;4065;48.754;9.982;2023-05-29T11:26:53;7.55;;;4.40;;
8044;SDS011;4065;48.754;9.982;2023-05-29T11:30:16;5.18;;;4.13;;
8044;SDS011;4065;48.754;9.982;2023-05-29T11:33:40;7.88;;;4.13;;
8044;SDS011;4065;48.754;9.982;2023-05-29T11:37:02;5.68;;;3.58;;
8044;SDS011;4065;48.754;9.982;2023-05-29T11:40:25;4.95;;;3.88;;
8044;SDS011;4065;48.754;9.982;2023-05-29T11:43:55;6.60;;;3.92;;
8044;SDS011;4065;48.754;9.982;2023-05-29T11:47:18;6.60;;;4.00;;
8044;SDS011;4065;48.754;9.982;2023-05-29T11:50:46;6.43;;;4.07;;
8044;SDS011;4065;48.754;9.982;2023-05-29T11:54:07;8.02;;;4.40;;
8044;SDS011;4065;48.754;9.982;2023-05-29T11:57:30;6.60;;;4.00;;
8044;SDS011;4065;48.754;9.982;2023-05-29T12:00:52;6.50;;;4.65;;
8044;SDS011;4065;48.754;9.982;2023-05-29T12:04:15;4.40;;;3.75;;
8044;SDS011;4065;48.754;9.982;2023-05-29T12:07:39;8.48;;;4.68;;
8044;SDS011;4065;48.754;9.982;2023-05-29T12:11:08;6.70;;;4.47;;
8044;SDS011;4065;48.754;9.982;2023-05-29T12:14:30;6.00;;;4.32;;
8044;SDS011;4065;48.754;9.982;2023-05-29T12:17:52;6.18;;;3.85;;
8044;SDS011;4065;48.754;9.982;2023-05-29T12:21:15;7.28;;;4.60;;
8044;SDS011;4065;48.754;9.982;2023-05-29T12:24:41;6.93;;;4.03;;
8044;SDS011;4065;48.754;9.982;2023-05-29T12:28:04;6.88;;;4.38;;
8044;SDS011;4065;48.754;9.982;2023-05-29T12:31:29;5.60;;;4.47;;
8044;SDS011;4065;48.754;9.982;2023-05-29T12:34:51;10.05;;;4.78;;
8044;SDS011;4065;48.754;9.982;2023-05-29T12:38:13;7.78;;;4.45;;
8044;SDS011;4065;48.754;9.982;2023-05-29T12:41:37;6.18;;;4.18;;
8044;SDS011;4065;48.754;9.982;2023-05-29T12:45:00;4.95;;;3.88;;
8044;SDS011;4065;48.754;9.982;2023-05-29T12:48:27;6.93;;;4.15;;
8044;SDS011;4065;48.754;9.982;2023-05-29T12:51:49;4.90;;;3.95;;
8044;SDS011;4065;48.754;9.982;2023-05-29T12:55:12;6.63;;;4.07;;
8044;SDS011;4065;48.754;9.982;2023-05-29T12:58:36;5.90;;;4.25;;
8044;SDS011;4065;48.754;9.982;2023-05-29T13:01:58;5.85;;;4.13;;
8044;SDS011;4065;48.754;9.982;2023-05-29T13:05:19;6.18;;;4.30;;
8044;SDS011;4065;48.754;9.982;2023-05-29T13:08:43;5.60;;;3.70;;
8044;SDS011;4065;48.754;9.982;2023-05-29T13:12:05;5.30;;;3.95;;
8044;SDS011;4065;48.754;9.982;2023-05-29T13:15:28;6.22;;;4.10;;
8044;SDS011;4065;48.754;9.982;2023-05-29T13:18:53;6.93;;;4.10;;
8044;SDS011;4065;48.754;9.982;2023-05-29T13:22:14;5.10;;;3.85;;
8044;SDS011;4065;48.754;9.982;2023-05-29T13:25:36;5.82;;;3.83;;
8044;SDS011;4065;48.754;9.982;2023-05-29T13:28:59;5.47;;;4.40;;
8044;SDS011;4065;48.754;9.982;2023-05-29T13:32:22;5.53;;;3.80;;
8044;SDS011;4065;48.754;9.982;2023-05-29T13:35:45;6.53;;;4.05;;
8044;SDS011;4065;48.754;9.982;2023-05-29T13:39:08;5.45;;;3.85;;
8044;SDS011;4065;48.754;9.982;2023-05-29T13:42:30;5.88;;;3.60;;
8044;SDS011;4065;48.754;9.982;2023-05-29T13:45:54;5.55;;;3.75;;
8044;SDS011;4065;48.754;9.982;2023-05-29T13:49:18;5.28;;;3.78;;
8044;SDS011;4065;48.754;9.982;2023-05-29T13:52:40;5.78;;;3.95;;
8044;SDS011;4065;48.754;9.982;2023-05-29T13:56:02;4.80;;;3.92;;
8044;SDS011;4065;48.754;9.982;2023-05-29T13:59:24;5.22;;;3.80;;
8044;SDS011;4065;48.754;9.982;2023-05-29T14:02:46;4.70;;;3.50;;
8044;SDS011;4065;48.754;9.982;2023-05-29T14:06:09;4.82;;;3.40;;
8044;SDS011;4065;48.754;9.982;2023-05-29T14:09:31;7.38;;;4.25;;
8044;SDS011;4065;48.754;9.982;2023-05-29T14:12:53;5.80;;;3.75;;
8044;SDS011;4065;48.754;9.982;2023-05-29T14:16:15;4.25;;;3.85;;
8044;SDS011;4065;48.754;9.982;2023-05-29T14:19:37;7.60;;;4.10;;
8044;SDS011;4065;48.754;9.982;2023-05-29T14:23:04;5.97;;;3.95;;
8044;SDS011;4065;48.754;9.982;2023-05-29T14:26:27;5.68;;;4.22;;
8044;SDS011;4065;48.754;9.982;2023-05-29T14:29:49;4.35;;;3.60;;
8044;SDS011;4065;48.754;9.982;2023-05-29T14:33:11;6.75;;;4.00;;
8044;SDS011;4065;48.754;9.982;2023-05-29T14:36:33;6.60;;;4.53;;
8044;SDS011;4065;48.754;9.982;2023-05-29T14:39:57;5.88;;;4.22;;
8044;SDS011;4065;48.754;9.982;2023-05-29T14:43:19;7.03;;;4.45;;
8044;SDS011;4065;48.754;9.982;2023-05-29T14:46:41;7.55;;;4.43;;
8044;SDS011;4065;48.754;9.982;2023-05-29T14:50:06;7.20;;;4.13;;
8044;SDS011;4065;48.754;9.982;2023-05-29T14:53:29;8.02;;;4.20;;
8044;SDS011;4065;48.754;9.982;2023-05-29T14:56:53;6.45;;;3.97;;
8044;SDS011;4065;48.754;9.982;2023-05-29T15:00:15;5.45;;;4.40;;
8044;SDS011;4065;48.754;9.982;2023-05-29T15:03:41;5.78;;;3.95;;
8044;SDS011;4065;48.754;9.982;2023-05-29T15:07:05;6.88;;;4.65;;
8044;SDS011;4065;48.754;9.982;2023-05-29T15:10:27;6.38;;;3.88;;
8044;SDS011;4065;48.754;9.982;2023-05-29T15:13:51;7.47;;;4.93;;
8044;SDS011;4065;48.754;9.982;2023-05-29T15:17:13;4.80;;;4.20;;
8044;SDS011;4065;48.754;9.982;2023-05-29T15:20:35;7.45;;;4.50;;
8044;SDS011;4065;48.754;9.982;2023-05-29T15:23:57;6.47;;;4.28;;
8044;SDS011;4065;48.754;9.982;2023-05-29T15:27:19;5.28;;;4.35;;
8044;SDS011;4065;48.754;9.982;2023-05-29T15:30:42;6.35;;;4.10;;
8044;SDS011;4065;48.754;9.982;2023-05-29T15:34:05;6.25;;;4.47;;
8044;SDS011;4065;48.754;9.982;2023-05-29T15:37:26;5.53;;;4.63;;
8044;SDS011;4065;48.754;9.982;2023-05-29T15:40:51;5.72;;;4.32;;
8044;SDS011;4065;48.754;9.982;2023-05-29T15:44:13;6.07;;;4.50;;
8044;SDS011;4065;48.754;9.982;2023-05-29T15:47:36;6.15;;;4.60;;
8044;SDS011;4065;48.754;9.982;2023-05-29T15:50:58;7.28;;;4.47;;
8044;SDS011;4065;48.754;9.982;2023-05-29T15:54:20;6.38;;;4.20;;
8044;SDS011;4065;48.754;9.982;2023-05-29T15:57:42;8.13;;;5.70;;
8044;SDS011;4065;48.754;9.982;2023-05-29T16:01:05;6.60;;;4.50;;
8044;SDS011;4065;48.754;9.982;2023-05-29T16:04:30;15.30;;;11.80;;
8044;SDS011;4065;48.754;9.982;2023-05-29T16:07:52;7.72;;;5.20;;
8044;SDS011;4065;48.754;9.982;2023-05-29T16:11:14;7.35;;;5.47;;
8044;SDS011;4065;48.754;9.982;2023-05-29T16:14:36;7.18;;;4.25;;
8044;SDS011;4065;48.754;9.982;2023-05-29T16:18:03;5.68;;;4.00;;
8044;SDS011;4065;48.754;9.982;2023-05-29T16:21:26;5.50;;;4.18;;
8044;SDS011;4065;48.754;9.982;2023-05-29T16:24:49;5.13;;;3.80;;
8044;SDS011;4065;48.754;9.982;2023-05-29T16:28:11;7.03;;;3.97;;
8044;SDS011;4065;48.754;9.982;2023-05-29T16:31:33;7.35;;;4.20;;
8044;SDS011;4065;48.754;9.982;2023-05-29T16:34:57;5.28;;;3.75;;
8044;SDS011;4065;48.754;9.982;2023-05-29T16:38:20;6.03;;;4.07;;
8044;SDS011;4065;48.754;9.982;2023-05-29T16:41:42;4.40;;;3.60;;
8044;SDS011;4065;48.754;9.982;2023-05-29T16:45:05;5.25;;;3.85;;
8044;SDS011;4065;48.754;9.982;2023-05-29T16:48:28;5.90;;;3.97;;
8044;SDS011;4065;48.754;9.982;2023-05-29T16:51:50;4.97;;;4.38;;
8044;SDS011;4065;48.754;9.982;2023-05-29T16:55:15;5.65;;;4.13;;
8044;SDS011;4065;48.754;9.982;2023-05-29T16:58:40;5.63;;;3.90;;
8044;SDS011;4065;48.754;9.982;2023-05-29T17:02:06;6.00;;;4.15;;
8044;SDS011;4065;48.754;9.982;2023-05-29T17:05:28;6.43;;;4.18;;
8044;SDS011;4065;48.754;9.982;2023-05-29T17:08:50;5.63;;;4.20;;
8044;SDS011;4065;48.754;9.982;2023-05-29T17:12:13;4.97;;;3.90;;
8044;SDS011;4065;48.754;9.982;2023-05-29T17:15:35;4.05;;;3.65;;
8044;SDS011;4065;48.754;9.982;2023-05-29T17:18:57;5.28;;;3.80;;
8044;SDS011;4065;48.754;9.982;2023-05-29T17:22:19;4.35;;;3.53;;
8044;SDS011;4065;48.754;9.982;2023-05-29T17:25:41;6.03;;;4.07;;
8044;SDS011;4065;48.754;9.982;2023-05-29T17:29:04;7.65;;;4.00;;
8044;SDS011;4065;48.754;9.982;2023-05-29T17:32:27;4.93;;;3.80;;
8044;SDS011;4065;48.754;9.982;2023-05-29T17:35:49;6.05;;;3.80;;
8044;SDS011;4065;48.754;9.982;2023-05-29T17:39:11;5.50;;;3.70;;
8044;SDS011;4065;48.754;9.982;2023-05-29T17:42:33;6.00;;;4.28;;
8044;SDS011;4065;48.754;9.982;2023-05-29T17:45:57;5.05;;;3.85;;
8044;SDS011;4065;48.754;9.982;2023-05-29T17:49:20;6.20;;;3.80;;
8044;SDS011;4065;48.754;9.982;2023-05-29T17:52:42;5.00;;;3.72;;
8044;SDS011;4065;48.754;9.982;2023-05-29T17:56:04;5.95;;;4.13;;
8044;SDS011;4065;48.754;9.982;2023-05-29T17:59:26;6.57;;;3.83;;
8044;SDS011;4065;48.754;9.982;2023-05-29T18:02:52;5.43;;;3.88;;
8044;SDS011;4065;48.754;9.982;2023-05-29T18:06:14;4.50;;;3.85;;
8044;SDS011;4065;48.754;9.982;2023-05-29T18:09:38;4.90;;;3.40;;
8044;SDS011;4065;48.754;9.982;2023-05-29T18:13:00;4.97;;;3.63;;
8044;SDS011;4065;48.754;9.982;2023-05-29T18:16:22;6.07;;;3.92;;
8044;SDS011;4065;48.754;9.982;2023-05-29T18:19:46;6.40;;;3.83;;
8044;SDS011;4065;48.754;9.982;2023-05-29T18:23:07;4.97;;;3.78;;
8044;SDS011;4065;48.754;9.982;2023-05-29T18:26:32;5.00;;;3.72;;
8044;SDS011;4065;48.754;9.982;2023-05-29T18:29:54;8.25;;;4.05;;
8044;SDS011;4065;48.754;9.982;2023-05-29T18:33:16;4.82;;;3.90;;
8044;SDS011;4065;48.754;9.982;2023-05-29T18:36:39;6.20;;;4.05;;
8044;SDS011;4065;48.754;9.982;2023-05-29T18:40:04;5.10;;;3.92;;
8044;SDS011;4065;48.754;9.982;2023-05-29T18:43:27;5.10;;;3.78;;
8044;SDS011;4065;48.754;9.982;2023-05-29T18:46:50;4.95;;;3.78;;
8044;SDS011;4065;48.754;9.982;2023-05-29T18:50:13;5.03;;;4.05;;
8044;SDS011;4065;48.754;9.982;2023-05-29T18:53:36;6.43;;;3.88;;
8044;SDS011;4065;48.754;9.982;2023-05-29T18:57:00;6.15;;;4.05;;
8044;SDS011;4065;48.754;9.982;2023-05-29T19:00:23;5.68;;;3.92;;
8044;SDS011;4065;48.754;9.982;2023-05-29T19:03:45;5.45;;;3.80;;
8044;SDS011;4065;48.754;9.982;2023-05-29T19:07:07;6.75;;;4.43;;
8044;SDS011;4065;48.754;9.982;2023-05-29T19:10:30;4.80;;;3.72;;
8044;SDS011;4065;48.754;9.982;2023-05-29T19:13:52;6.40;;;3.92;;
8044;SDS011;4065;48.754;9.982;2023-05-29T19:17:14;5.75;;;3.95;;
8044;SDS011;4065;48.754;9.982;2023-05-29T19:20:37;8.07;;;4.53;;
8044;SDS011;4065;48.754;9.982;2023-05-29T19:23:59;6.88;;;4.28;;
8044;SDS011;4065;48.754;9.982;2023-05-29T19:27:23;4.85;;;3.60;;
8044;SDS011;4065;48.754;9.982;2023-05-29T19:30:45;6.20;;;3.92;;
8044;SDS011;4065;48.754;9.982;2023-05-29T19:34:07;5.85;;;4.55;;
8044;SDS011;4065;48.754;9.982;2023-05-29T19:37:29;6.82;;;4.20;;
8044;SDS011;4065;48.754;9.982;2023-05-29T19:40:51;5.75;;;4.40;;
8044;SDS011;4065;48.754;9.982;2023-05-29T19:44:14;6.20;;;4.32;;
8044;SDS011;4065;48.754;9.982;2023-05-29T19:47:36;7.75;;;4.82;;
8044;SDS011;4065;48.754;9.982;2023-05-29T19:50:58;6.63;;;4.43;;
8044;SDS011;4065;48.754;9.982;2023-05-29T19:54:20;4.85;;;4.15;;
8044;SDS011;4065;48.754;9.982;2023-05-29T19:57:42;6.53;;;4.53;;
8044;SDS011;4065;48.754;9.982;2023-05-29T20:01:07;6.78;;;4.35;;
8044;SDS011;4065;48.754;9.982;2023-05-29T20:04:30;4.72;;;4.13;;
8044;SDS011;4065;48.754;9.982;2023-05-29T20:07:53;7.05;;;4.20;;
8044;SDS011;4065;48.754;9.982;2023-05-29T20:11:16;5.45;;;4.28;;
8044;SDS011;4065;48.754;9.982;2023-05-29T20:14:37;6.20;;;4.28;;
8044;SDS011;4065;48.754;9.982;2023-05-29T20:18:01;4.50;;;3.97;;
8044;SDS011;4065;48.754;9.982;2023-05-29T20:21:23;8.35;;;4.43;;
8044;SDS011;4065;48.754;9.982;2023-05-29T20:24:45;5.78;;;4.72;;
8044;SDS011;4065;48.754;9.982;2023-05-29T20:28:07;5.85;;;4.28;;
8044;SDS011;4065;48.754;9.982;2023-05-29T20:31:29;6.80;;;4.57;;
8044;SDS011;4065;48.754;9.982;2023-05-29T20:34:52;7.00;;;4.55;;
8044;SDS011;4065;48.754;9.982;2023-05-29T20:38:15;6.85;;;4.97;;
8044;SDS011;4065;48.754;9.982;2023-05-29T20:41:37;6.03;;;4.43;;
8044;SDS011;4065;48.754;9.982;2023-05-29T20:44:59;6.45;;;4.22;;
8044;SDS011;4065;48.754;9.982;2023-05-29T20:48:23;6.68;;;4.25;;
8044;SDS011;4065;48.754;9.982;2023-05-29T20:51:46;7.00;;;4.53;;
8044;SDS011;4065;48.754;9.982;2023-05-29T20:55:09;5.50;;;4.38;;
8044;SDS011;4065;48.754;9.982;2023-05-29T20:58:30;8.27;;;5.00;;
8044;SDS011;4065;48.754;9.982;2023-05-29T21:01:52;8.52;;;4.75;;
8044;SDS011;4065;48.754;9.982;2023-05-29T21:05:15;5.07;;;4.38;;
8044;SDS011;4065;48.754;9.982;2023-05-29T21:08:38;6.05;;;4.57;;